Main page
METAR-TAF:

METAR-TAF

Airports :

Khajuraho Airport

Khajuraho, India

latitude: 24-49-02N, longitude: 79-55-07E, elevation: 222 m

Current weather observation

The report was made 16 hours and 53 minutes ago, at 12:00 UTC
Calm wind
Temperature 23°C
Humidity 53%
Pressure 1014 hPa
Visibility: 1500 m
Scattered clouds at a height of 2000 ft
Broken clouds at a height of 10000 ft
mist

METAR: VEKO 021200Z 00000KT 1500 BR SCT020 BKN100 23/13 Q1014

Time: 10:23 (04:53 UTC)

Forecast

The report was made 2 hours and 53 minutes ago, at 02:00 UTC
Forecast valid from 03 at 03 UTC to 03 at 12 UTC
Wind kt from the North
Visibility: 0800 m
Few clouds at a height of 2000 ft
Broken clouds at a height of 10000 ft
fog
Becoming
from 03 at 08 UTC to 03 at 10 UTC
Wind 5 kt from the North
Visibility: 1500 m
Scattered clouds at a height of 2500 ft
Broken clouds at a height of 10000 ft
mist

TAF: VEKO 030200Z 0303/0312 00000KT 0800 FG FEW020 BKN100 BECMG 0308/0310 36005KT 1500 BR SCT025 BKN100

Weather observations and forecasts of more than 4000 airports (METAR and TAF reports).

The available stations are represented by yellow and red dots on the map.

Hover mouse over dot to see the name of the station.

Then click to see weather observations and forecasts.

To change the map : click on the green buttons with a black cross to zoom in, on the green button with a dash to zoom out, or on the green arrows for adjacent maps.


METAR-TAF: